This is the latest recevied weather packets stored in our database for station/object SP2WPY-13. If no packets are shown the sender has not sent any weather packets the latest 1 day(s).
| Time | Temp. | Humidity | Pressure | Rain* | Wind** | Luminosity | Snow |
|---|---|---|---|---|---|---|---|
| 1777949176 | 8.33° C | 100% | 1013.9 hPa | - | 3.58 m/s, 261° | - | - |
| 1777948903 | 8.33° C | 100% | 1014 hPa | - | 3.13 m/s, 264° | - | - |
| 1777948582 | 8.33° C | 100% | 1014 hPa | - | 2.68 m/s, 268° | - | - |
| 1777948263 | 8.33° C | 100% | 1014 hPa | - | 2.24 m/s, 252° | - | - |
| 1777947989 | 8.89° C | 100% | 1014.1 hPa | - | 3.58 m/s, 261° | - | - |
| 1777947669 | 8.89° C | 100% | 1014.1 hPa | - | 1.79 m/s, 255° | - | - |
| 1777947396 | 8.89° C | 100% | 1014 hPa | - | 4.02 m/s, 268° | - | - |
| 1777947075 | 8.89° C | 100% | 1014.1 hPa | - | 3.58 m/s, 260° | - | - |
| 1777946802 | 8.89° C | 100% | 1014.1 hPa | - | 3.58 m/s, 261° | - | - |
| 1777946482 | 8.89° C | 100% | 1014.1 hPa | - | 3.58 m/s, 268° | - | - |
| 1777946161 | 8.89° C | 100% | 1014.1 hPa | - | 3.13 m/s, 259° | - | - |
| 1777945889 | 8.89° C | 100% | 1014.1 hPa | - | 2.68 m/s, 266° | - | - |
| 1777945569 | 8.89° C | 100% | 1014.1 hPa | - | 3.13 m/s, 271° | - | - |
| 1777945295 | 8.89° C | 100% | 1014.1 hPa | - | 2.24 m/s, 263° | - | - |
| 1777944975 | 8.89° C | 100% | 1014.2 hPa | - | 1.79 m/s, 263° | - | - |
| 1777944701 | 8.89° C | 100% | 1014.2 hPa | - | 1.34 m/s, 257° | - | - |
| 1777944381 | 8.89° C | 100% | 1014.2 hPa | - | 1.79 m/s, 256° | - | - |
| 1777944062 | 8.89° C | 100% | 1014.1 hPa | - | 3.58 m/s, 266° | - | - |
| 1777943788 | 9.44° C | 100% | 1014.1 hPa | - | 3.13 m/s, 267° | - | - |
| 1777943468 | 9.44° C | 100% | 1014 hPa | - | 1.79 m/s, 268° | - | - |
| 1777943194 | 9.44° C | 100% | 1014 hPa | - | 2.24 m/s, 260° | - | - |
| 1777942874 | 9.44° C | 100% | 1014 hPa | - | 2.68 m/s, 260° | - | - |
| 1777942600 | 9.44° C | 100% | 1014 hPa | - | 3.13 m/s, 258° | - | - |
| 1777942280 | 9.44° C | 100% | 1014 hPa | - | 3.13 m/s, 263° | - | - |
| 1777941961 | 9.44° C | 100% | 1014 hPa | - | 2.68 m/s, 261° | - | - |
* Rain since midnight (hover to see other rain measurements)
** Current wind speed in m/s (hover to see current wind gust speed)